createdAt,value
2018-02-23T00:02:18.583Z,-2.04
2018-02-23T00:07:23.867Z,-2.16
2018-02-23T00:09:53.021Z,-2.19
2018-02-23T00:12:22.184Z,-2.05
2018-02-23T00:14:51.387Z,-2.33
2018-02-23T00:17:20.542Z,-2.29
2018-02-23T00:19:50.795Z,-2.24
2018-02-23T00:22:20.040Z,-2.29
2018-02-23T00:24:49.215Z,-2.19
2018-02-23T00:27:18.381Z,-2.27
2018-02-23T00:29:47.698Z,-2.29
2018-02-23T00:32:16.854Z,-2.16
2018-02-23T00:34:45.999Z,-2.18
2018-02-23T00:37:15.159Z,-2.07
2018-02-23T00:39:44.306Z,-2.14
2018-02-23T00:42:13.479Z,-2.24
2018-02-23T00:44:47.741Z,-2.25
2018-02-23T00:47:16.944Z,-2.23
2018-02-23T00:49:46.159Z,-2.36
2018-02-23T00:52:15.311Z,-2.21
2018-02-23T00:54:44.466Z,-2.08
2018-02-23T00:57:13.609Z,-2.12
2018-02-23T00:59:42.787Z,-2.16
2018-02-23T01:02:11.952Z,-2.20
2018-02-23T01:04:41.155Z,-2.19
2018-02-23T01:07:10.311Z,-2.14
2018-02-23T01:09:39.500Z,-2.28
2018-02-23T01:12:08.698Z,-2.31
2018-02-23T01:14:37.868Z,-2.31
2018-02-23T01:17:07.048Z,-2.30
2018-02-23T01:19:36.213Z,-2.39
2018-02-23T01:22:05.401Z,-2.39
2018-02-23T01:24:34.582Z,-2.21
2018-02-23T01:29:39.049Z,-2.08
2018-02-23T01:32:08.212Z,-2.25
2018-02-23T01:34:37.426Z,-2.23
2018-02-23T01:39:41.860Z,-2.05
2018-02-23T01:42:11.063Z,-2.19
2018-02-23T01:44:40.272Z,-2.22
2018-02-23T01:47:10.023Z,-2.09
2018-02-23T01:49:39.166Z,-2.16
2018-02-23T01:52:08.352Z,-2.21
2018-02-23T01:54:37.566Z,-2.14
2018-02-23T01:57:06.731Z,-2.09
2018-02-23T01:59:35.903Z,-2.23
2018-02-23T02:02:05.130Z,-2.22
2018-02-23T02:07:10.012Z,-2.11
2018-02-23T02:09:39.175Z,-2.20
2018-02-23T02:12:08.325Z,-2.19
2018-02-23T02:14:37.491Z,-2.25
2018-02-23T02:17:06.647Z,-2.30
2018-02-23T02:19:35.889Z,-2.24
2018-02-23T02:22:05.023Z,-2.17
2018-02-23T02:24:34.195Z,-2.16
2018-02-23T02:27:03.375Z,-2.17
2018-02-23T02:29:32.584Z,-2.23
2018-02-23T02:32:01.749Z,-2.25
2018-02-23T02:34:31.000Z,-2.20
2018-02-23T02:37:02.216Z,-2.35
2018-02-23T02:39:31.363Z,-2.25
2018-02-23T02:42:00.561Z,-2.13
2018-02-23T02:44:29.730Z,-2.36
2018-02-23T02:46:58.907Z,-2.33
2018-02-23T02:49:30.596Z,-2.29
2018-02-23T02:51:59.749Z,-2.28
2018-02-23T02:54:28.997Z,-2.25
2018-02-23T02:57:01.516Z,-2.23
2018-02-23T02:59:30.676Z,-2.26
2018-02-23T03:01:59.839Z,-2.52
2018-02-23T03:04:29.047Z,-2.37
2018-02-23T03:06:58.250Z,-2.26
2018-02-23T03:09:27.419Z,-2.26
2018-02-23T03:11:56.964Z,-2.42
2018-02-23T03:14:26.159Z,-2.32
2018-02-23T03:16:55.322Z,-2.36
2018-02-23T03:19:24.464Z,-2.44
2018-02-23T03:21:53.627Z,-2.38
2018-02-23T03:24:23.842Z,-2.24
2018-02-23T03:26:53.041Z,-2.26
2018-02-23T03:29:23.316Z,-2.21
2018-02-23T03:31:52.446Z,-2.45
2018-02-23T03:34:21.620Z,-2.52
2018-02-23T03:36:50.762Z,-2.35
2018-02-23T03:39:19.928Z,-2.46
2018-02-23T03:41:49.094Z,-2.60
2018-02-23T03:49:31.611Z,-2.41
2018-02-23T03:52:02.140Z,-2.54
2018-02-23T03:54:31.308Z,-2.60
2018-02-23T03:57:03.595Z,-2.59
2018-02-23T03:59:32.772Z,-2.67
2018-02-23T04:02:02.117Z,-2.50
2018-02-23T04:04:31.299Z,-2.36
2018-02-23T04:07:00.496Z,-2.25
2018-02-23T04:09:29.669Z,-2.25
2018-02-23T04:11:58.852Z,-2.35
2018-02-23T04:14:28.056Z,-2.43
2018-02-23T04:16:57.219Z,-2.59
2018-02-23T04:19:28.766Z,-2.50
2018-02-23T04:21:57.908Z,-2.50
2018-02-23T04:24:27.190Z,-2.73
2018-02-23T04:26:56.362Z,-2.63
2018-02-23T04:29:25.548Z,-2.56
2018-02-23T04:31:54.713Z,-2.67
2018-02-23T04:34:23.896Z,-2.62
2018-02-23T04:36:53.975Z,-2.69
2018-02-23T04:39:23.194Z,-2.53
2018-02-23T04:41:52.393Z,-2.69
2018-02-23T04:44:21.602Z,-2.59
2018-02-23T04:46:50.759Z,-2.53
2018-02-23T04:49:19.931Z,-2.60
2018-02-23T04:51:49.082Z,-2.70
2018-02-23T04:54:24.808Z,-2.86
2018-02-23T04:56:54.035Z,-2.78
2018-02-23T04:59:23.207Z,-2.58
2018-02-23T05:01:52.460Z,-2.54
2018-02-23T05:04:21.655Z,-2.75
2018-02-23T05:06:50.847Z,-2.67
2018-02-23T05:09:20.092Z,-2.52
2018-02-23T05:11:49.407Z,-2.57
2018-02-23T05:14:19.644Z,-2.73
2018-02-23T05:16:48.849Z,-2.62
2018-02-23T05:19:18.002Z,-2.66
2018-02-23T05:21:47.235Z,-2.61
2018-02-23T05:26:53.654Z,-2.45
2018-02-23T05:29:22.820Z,-2.63
2018-02-23T05:31:52.003Z,-2.52
2018-02-23T05:34:21.192Z,-2.44
2018-02-23T05:36:50.358Z,-2.40
2018-02-23T05:39:19.530Z,-2.44
2018-02-23T05:41:49.472Z,-2.49
2018-02-23T05:44:18.640Z,-2.58
2018-02-23T05:46:47.812Z,-2.43
2018-02-23T05:51:52.162Z,-2.39
2018-02-23T05:56:59.540Z,-2.52
2018-02-23T05:59:28.728Z,-2.61
2018-02-23T06:01:57.903Z,-2.65
2018-02-23T06:04:27.064Z,-2.46
2018-02-23T06:06:56.228Z,-2.51
2018-02-23T06:09:25.358Z,-2.61
2018-02-23T06:11:54.530Z,-2.58
2018-02-23T06:14:23.767Z,-2.51
2018-02-23T06:16:52.952Z,-2.64
2018-02-23T06:19:27.402Z,-2.53
2018-02-23T06:21:56.588Z,-2.54
2018-02-23T06:24:25.784Z,-2.42
2018-02-23T06:26:54.956Z,-2.46
2018-02-23T06:29:24.134Z,-2.48
2018-02-23T06:31:53.309Z,-2.39
2018-02-23T06:34:22.498Z,-2.28
2018-02-23T06:36:51.851Z,-2.44
2018-02-23T06:39:21.069Z,-2.39
2018-02-23T06:41:51.223Z,-2.35
2018-02-23T06:44:20.395Z,-2.45
2018-02-23T06:46:55.209Z,-2.39
2018-02-23T06:49:24.376Z,-2.34
2018-02-23T06:51:53.572Z,-2.25
2018-02-23T06:55:06.491Z,-2.27
2018-02-23T06:57:35.639Z,-2.17
2018-02-23T07:00:04.880Z,-2.26
2018-02-23T07:02:34.135Z,-2.32
2018-02-23T07:05:03.432Z,-2.29
2018-02-23T07:07:32.595Z,-2.20
2018-02-23T07:10:01.772Z,-2.23
2018-02-23T07:12:30.975Z,-2.28
2018-02-23T07:15:00.185Z,-2.31
2018-02-23T07:17:29.402Z,-2.36
2018-02-23T07:19:58.570Z,-2.37
2018-02-23T07:22:27.768Z,-2.30
2018-02-23T07:24:56.953Z,-2.36
2018-02-23T07:27:26.112Z,-2.20
2018-02-23T07:29:55.310Z,-2.16
2018-02-23T07:32:24.495Z,-2.28
2018-02-23T07:34:53.717Z,-2.16
2018-02-23T07:37:22.900Z,-2.11
2018-02-23T07:39:52.043Z,-2.34
2018-02-23T07:42:21.226Z,-2.58
2018-02-23T07:44:50.421Z,-2.48
2018-02-23T07:47:19.700Z,-2.49
2018-02-23T07:49:48.893Z,-2.29
2018-02-23T07:52:18.316Z,-2.44
2018-02-23T07:54:47.520Z,-2.35
2018-02-23T07:57:16.666Z,-2.59
2018-02-23T07:59:46.271Z,-2.62
2018-02-23T08:02:15.472Z,-2.65
2018-02-23T08:04:44.678Z,-2.55
2018-02-23T08:07:13.839Z,-2.44
2018-02-23T08:12:18.211Z,-2.52
2018-02-23T08:14:47.455Z,-2.26
2018-02-23T08:17:16.614Z,-2.45
2018-02-23T08:19:45.797Z,-2.21
2018-02-23T08:22:15.028Z,-2.19
2018-02-23T08:24:44.806Z,-2.45
2018-02-23T08:27:14.587Z,-2.06
2018-02-23T08:29:43.782Z,-1.94
2018-02-23T08:32:12.967Z,-2.08
2018-02-23T08:34:43.078Z,-1.89
2018-02-23T08:37:12.565Z,-1.80
2018-02-23T08:39:41.916Z,-1.62
2018-02-23T08:42:11.127Z,-1.73
2018-02-23T08:44:48.234Z,-2.04
2018-02-23T08:47:17.439Z,-1.90
2018-02-23T08:49:46.594Z,-1.82
2018-02-23T08:52:15.755Z,-1.92
2018-02-23T08:54:44.940Z,-1.97
2018-02-23T08:57:14.100Z,-1.84
2018-02-23T08:59:43.283Z,-1.43
2018-02-23T09:02:12.447Z,-1.41
2018-02-23T09:04:41.670Z,-1.33
2018-02-23T09:07:10.803Z,-1.50
2018-02-23T09:09:39.987Z,-1.25
2018-02-23T09:12:09.172Z,-1.27
2018-02-23T09:14:38.367Z,-1.52
2018-02-23T09:17:07.550Z,-1.45
2018-02-23T09:19:45.423Z,-1.44
2018-02-23T09:22:14.986Z,-1.19
2018-02-23T09:24:44.172Z,-0.94
2018-02-23T09:27:13.336Z,-0.83
2018-02-23T09:29:42.475Z,-0.94
2018-02-23T09:32:27.002Z,-1.23
2018-02-23T09:34:56.163Z,-1.58
2018-02-23T09:37:29.119Z,-1.53
2018-02-23T09:39:58.304Z,-1.22
2018-02-23T09:42:27.506Z,-1.33
2018-02-23T09:44:56.746Z,-1.32
2018-02-23T09:47:31.930Z,-1.41
2018-02-23T09:50:01.094Z,-1.09
2018-02-23T09:52:30.380Z,-0.86
2018-02-23T09:54:59.593Z,-0.50
2018-02-23T09:57:30.083Z,-0.25
2018-02-23T09:59:59.255Z,-0.47
2018-02-23T10:02:28.428Z,-0.44
2018-02-23T10:04:57.650Z,-0.59
2018-02-23T10:07:27.182Z,-0.76
2018-02-23T10:09:56.331Z,-0.70
2018-02-23T10:12:25.612Z,-1.09
2018-02-23T10:14:54.833Z,-1.10
2018-02-23T10:17:23.999Z,-0.87
2018-02-23T10:19:53.147Z,-0.99
2018-02-23T10:22:22.357Z,-1.04
2018-02-23T10:27:26.991Z,-0.76
2018-02-23T10:29:59.346Z,-0.91
2018-02-23T10:32:28.519Z,-0.97
2018-02-23T10:34:57.719Z,-0.56
2018-02-23T10:37:26.862Z,-0.01
2018-02-23T10:39:56.068Z,0.11
2018-02-23T10:42:25.272Z,0.12
2018-02-23T10:44:54.495Z,0.28
2018-02-23T10:47:23.650Z,0.14
2018-02-23T10:49:52.826Z,0.07
2018-02-23T10:52:22.029Z,-0.13
2018-02-23T10:54:51.207Z,-0.42
2018-02-23T10:57:20.402Z,-0.20
2018-02-23T10:59:50.492Z,-1.24
2018-02-23T11:02:19.743Z,-1.16
2018-02-23T11:04:48.948Z,-1.02
2018-02-23T11:07:18.156Z,-0.92
2018-02-23T11:09:47.307Z,-0.92
2018-02-23T11:12:17.063Z,-0.51
2018-02-23T11:14:46.224Z,-0.31
2018-02-23T11:17:16.395Z,-0.22
2018-02-23T11:19:45.577Z,-0.49
2018-02-23T11:22:15.984Z,-0.63
2018-02-23T11:24:45.261Z,-0.65
2018-02-23T11:27:15.583Z,-0.31
2018-02-23T11:29:44.716Z,-0.10
2018-02-23T11:32:15.231Z,0.03
2018-02-23T11:37:19.765Z,0.00
2018-02-23T11:39:48.926Z,-0.15
2018-02-23T11:42:18.115Z,-0.32
2018-02-23T11:44:47.395Z,-0.48
2018-02-23T11:47:17.148Z,-0.15
2018-02-23T11:49:46.299Z,-0.09
2018-02-23T11:52:16.430Z,0.25
2018-02-23T11:54:45.634Z,0.44
2018-02-23T11:57:16.537Z,0.29
2018-02-23T11:59:45.692Z,-0.07
2018-02-23T12:02:15.806Z,-0.13
2018-02-23T12:07:20.754Z,0.05
2018-02-23T12:09:49.895Z,-0.03
2018-02-23T12:12:19.069Z,-0.15
2018-02-23T12:17:23.434Z,0.12
2018-02-23T12:19:53.490Z,0.27
2018-02-23T12:22:23.311Z,-0.09
2018-02-23T12:24:52.476Z,0.02
2018-02-23T12:27:21.648Z,0.25
2018-02-23T12:29:53.354Z,-0.03
2018-02-23T12:32:22.528Z,0.01
2018-02-23T12:34:51.711Z,-0.06
2018-02-23T12:37:20.898Z,0.34
2018-02-23T12:39:50.101Z,0.18
2018-02-23T12:42:19.303Z,0.38
2018-02-23T12:44:48.513Z,0.09
2018-02-23T12:47:17.713Z,0.18
2018-02-23T12:49:47.309Z,0.25
2018-02-23T12:52:16.450Z,0.11
2018-02-23T12:54:46.753Z,-0.14
2018-02-23T12:57:16.261Z,-0.11
2018-02-23T12:59:46.700Z,-0.04
2018-02-23T13:02:15.847Z,-0.02
2018-02-23T13:04:46.443Z,-0.17
2018-02-23T13:07:15.624Z,0.14
2018-02-23T13:12:20.537Z,0.27
2018-02-23T13:14:55.290Z,0.27
2018-02-23T13:17:24.439Z,0.21
2018-02-23T13:19:53.594Z,-0.09
2018-02-23T13:22:22.747Z,0.07
2018-02-23T13:24:52.096Z,-0.11
2018-02-23T13:27:21.282Z,-0.46
2018-02-23T13:29:50.419Z,-0.92
2018-02-23T13:32:19.577Z,-0.56
2018-02-23T13:34:48.731Z,-0.39
2018-02-23T13:37:17.997Z,-0.59
2018-02-23T13:42:28.353Z,0.02
2018-02-23T13:44:57.614Z,0.08
2018-02-23T13:47:26.775Z,0.02
2018-02-23T13:49:55.952Z,-0.40
2018-02-23T13:52:25.133Z,-0.67
2018-02-23T13:54:54.333Z,-0.70
2018-02-23T13:57:23.519Z,-0.99
2018-02-23T14:00:00.774Z,-0.90
2018-02-23T14:02:29.931Z,-0.69
2018-02-23T14:04:59.108Z,-1.35
2018-02-23T14:07:33.164Z,-1.18
2018-02-23T14:10:02.356Z,-1.35
2018-02-23T14:12:31.574Z,-1.43
2018-02-23T14:15:00.779Z,-1.20
2018-02-23T14:17:29.955Z,-0.91
2018-02-23T14:19:59.109Z,-1.12
2018-02-23T14:22:28.270Z,-1.32
2018-02-23T14:24:57.436Z,-1.09
2018-02-23T14:27:26.604Z,-1.20
2018-02-23T14:32:31.003Z,-1.26
2018-02-23T14:35:00.168Z,-1.39
2018-02-23T14:37:29.363Z,-1.39
2018-02-23T14:39:58.526Z,-1.40
2018-02-23T14:42:27.684Z,-0.95
2018-02-23T14:44:56.863Z,-0.73
2018-02-23T14:47:26.063Z,-0.81
2018-02-23T14:52:39.346Z,-0.78
2018-02-23T14:55:14.036Z,-0.85
2018-02-23T14:57:47.388Z,-0.60
2018-02-23T15:00:20.927Z,-0.70
2018-02-23T15:02:54.873Z,-0.44
2018-02-23T15:05:30.831Z,-0.38
2018-02-23T15:08:03.776Z,-0.61
2018-02-23T15:10:37.363Z,-0.43
2018-02-23T15:13:06.607Z,-0.20
2018-02-23T15:15:35.767Z,-0.01
2018-02-23T15:18:04.951Z,0.06
2018-02-23T15:20:34.117Z,0.04
2018-02-23T15:23:03.284Z,-0.13
2018-02-23T15:25:32.459Z,-0.16
2018-02-23T15:28:01.605Z,-0.20
2018-02-23T15:33:13.444Z,-0.29
2018-02-23T15:35:43.149Z,-0.41
2018-02-23T15:38:12.308Z,-0.48
2018-02-23T15:40:41.529Z,-0.52
2018-02-23T15:43:10.701Z,-0.69
2018-02-23T15:45:39.912Z,-0.65
2018-02-23T15:48:22.123Z,-0.40
2018-02-23T15:53:44.940Z,-0.73
2018-02-23T15:56:14.229Z,-0.77
2018-02-23T15:58:45.342Z,-0.72
2018-02-23T16:01:14.591Z,-0.49
2018-02-23T16:03:43.767Z,-0.81
2018-02-23T16:06:13.014Z,-0.86
2018-02-23T16:08:46.691Z,-0.81
2018-02-23T16:11:15.876Z,-0.98
2018-02-23T16:13:45.058Z,-0.99
2018-02-23T16:16:14.291Z,-1.12
2018-02-23T16:18:43.465Z,-1.03
2018-02-23T16:21:12.637Z,-0.97
2018-02-23T16:23:41.783Z,-1.08
2018-02-23T16:26:10.986Z,-1.05
2018-02-23T16:28:40.577Z,-1.02
2018-02-23T16:31:09.756Z,-1.01
2018-02-23T16:33:38.945Z,-1.09
2018-02-23T16:36:08.136Z,-1.20
2018-02-23T16:38:37.331Z,-1.17
2018-02-23T16:41:06.475Z,-1.09
2018-02-23T16:43:35.672Z,-1.07
2018-02-23T16:46:04.839Z,-1.04
2018-02-23T16:48:34.008Z,-1.15
2018-02-23T16:51:03.156Z,-1.07
2018-02-23T16:53:32.342Z,-1.01
2018-02-23T16:56:01.958Z,-1.14
2018-02-23T16:58:31.098Z,-1.09
2018-02-23T17:01:03.611Z,-1.05
2018-02-23T17:03:32.982Z,-1.18
2018-02-23T17:08:38.679Z,-1.16
2018-02-23T17:11:07.847Z,-1.12
2018-02-23T17:13:37.017Z,-1.18
2018-02-23T17:16:06.212Z,-1.23
2018-02-23T17:18:36.391Z,-1.06
2018-02-23T17:21:05.545Z,-1.07
2018-02-23T17:23:34.730Z,-0.95
2018-02-23T17:26:03.906Z,-1.01
2018-02-23T17:28:33.127Z,-1.02
2018-02-23T17:31:02.287Z,-1.07
2018-02-23T17:33:31.447Z,-1.16
2018-02-23T17:36:01.695Z,-1.06
2018-02-23T17:38:30.883Z,-0.95
2018-02-23T17:41:00.029Z,-1.05
2018-02-23T17:43:29.204Z,-1.00
2018-02-23T17:45:58.375Z,-0.93
2018-02-23T17:48:28.251Z,-1.01
2018-02-23T17:50:57.417Z,-0.79
2018-02-23T17:53:26.634Z,-0.82
2018-02-23T17:55:55.855Z,-0.95
2018-02-23T17:58:25.032Z,-1.03
2018-02-23T18:00:54.226Z,-0.94
2018-02-23T18:03:23.396Z,-0.85
2018-02-23T18:05:52.587Z,-0.72
2018-02-23T18:08:21.768Z,-0.94
2018-02-23T18:10:50.933Z,-0.90
2018-02-23T18:16:04.504Z,-0.96
2018-02-23T18:18:33.884Z,-0.90
2018-02-23T18:21:03.028Z,-0.77
2018-02-23T18:23:32.182Z,-0.85
2018-02-23T18:26:01.344Z,-0.82
2018-02-23T18:28:30.551Z,-0.80
2018-02-23T18:30:59.715Z,-0.73
2018-02-23T18:33:29.000Z,-0.79
2018-02-23T18:35:58.192Z,-0.84
2018-02-23T18:38:27.467Z,-0.74
2018-02-23T18:46:07.156Z,-0.77
2018-02-23T18:48:36.341Z,-0.75
2018-02-23T18:51:05.547Z,-0.68
2018-02-23T18:53:34.752Z,-0.63
2018-02-23T18:56:04.971Z,-0.77
2018-02-23T18:58:34.427Z,-0.85
2018-02-23T19:01:03.603Z,-0.83
2018-02-23T19:03:33.255Z,-0.74
2018-02-23T19:06:02.650Z,-0.68
2018-02-23T19:08:31.880Z,-0.73
2018-02-23T19:11:02.031Z,-0.64
2018-02-23T19:13:31.676Z,-0.85
2018-02-23T19:18:37.976Z,-0.70
2018-02-23T19:21:07.379Z,-0.74
2018-02-23T19:23:36.989Z,-0.74
2018-02-23T19:26:06.641Z,-0.74
2018-02-23T19:28:36.213Z,-0.93
2018-02-23T19:31:05.399Z,-0.86
2018-02-23T19:33:34.615Z,-0.62
2018-02-23T19:36:04.244Z,-0.65
2018-02-23T19:38:33.534Z,-0.71
2018-02-23T19:41:02.720Z,-0.81
2018-02-23T19:43:32.074Z,-0.82
2018-02-23T19:46:01.336Z,-0.77
2018-02-23T19:48:31.338Z,-0.67
2018-02-23T19:51:00.585Z,-0.64
2018-02-23T19:53:29.863Z,-0.82
2018-02-23T19:55:59.384Z,-0.82
2018-02-23T19:58:31.583Z,-0.67
2018-02-23T20:01:01.494Z,-0.53
2018-02-23T20:03:31.121Z,-0.63
2018-02-23T20:06:00.641Z,-0.66
2018-02-23T20:08:29.926Z,-0.61
2018-02-23T20:10:59.375Z,-0.58
2018-02-23T20:13:29.873Z,-0.92
2018-02-23T20:15:59.077Z,-0.77
2018-02-23T20:21:04.384Z,-0.72
2018-02-23T20:23:33.607Z,-0.99
2018-02-23T20:26:02.975Z,-0.78
2018-02-23T20:28:32.144Z,-0.82
2018-02-23T20:31:01.928Z,-0.89
2018-02-23T20:33:32.046Z,-0.79
2018-02-23T20:36:06.129Z,-0.85
2018-02-23T20:41:23.003Z,-1.01
2018-02-23T20:43:53.099Z,-0.87
2018-02-23T20:46:22.424Z,-0.70
2018-02-23T20:48:52.529Z,-0.68
2018-02-23T20:51:23.855Z,-0.73
2018-02-23T20:53:53.335Z,-0.74
2018-02-23T20:56:23.155Z,-0.87
2018-02-23T20:58:54.494Z,-0.89
2018-02-23T21:01:24.177Z,-1.00
2018-02-23T21:03:53.501Z,-1.02
2018-02-23T21:09:03.558Z,-1.07
2018-02-23T21:11:34.474Z,-1.20
2018-02-23T21:14:03.848Z,-1.14
2018-02-23T21:16:33.253Z,-1.06
2018-02-23T21:19:03.703Z,-1.07
2018-02-23T21:21:32.898Z,-1.08
2018-02-23T21:24:02.135Z,-1.14
2018-02-23T21:26:31.595Z,-1.25
2018-02-23T21:29:00.775Z,-1.27
2018-02-23T21:31:29.938Z,-1.33
2018-02-23T21:33:59.096Z,-1.21
2018-02-23T21:36:28.426Z,-1.25
2018-02-23T21:38:57.795Z,-1.08
2018-02-23T21:44:06.454Z,-1.07
2018-02-23T21:46:36.115Z,-1.19
2018-02-23T21:49:05.584Z,-1.26
2018-02-23T21:51:36.174Z,-1.14
2018-02-23T21:54:05.717Z,-1.25
2018-02-23T21:56:34.928Z,-1.23
2018-02-23T21:59:04.560Z,-1.10
2018-02-23T22:01:33.991Z,-1.19
2018-02-23T22:04:03.308Z,-1.20
2018-02-23T22:06:32.628Z,-1.27
2018-02-23T22:09:01.997Z,-1.38
2018-02-23T22:11:31.855Z,-1.31
2018-02-23T22:14:01.027Z,-1.32
2018-02-23T22:16:30.202Z,-1.35
2018-02-23T22:18:59.372Z,-1.33
2018-02-23T22:21:28.673Z,-1.45
2018-02-23T22:23:57.862Z,-1.40
2018-02-23T22:26:27.139Z,-1.54
2018-02-23T22:28:56.394Z,-1.58
2018-02-23T22:31:25.607Z,-1.52
2018-02-23T22:33:54.883Z,-1.54
2018-02-23T22:36:24.343Z,-1.49
2018-02-23T22:38:53.680Z,-1.40
2018-02-23T22:41:22.961Z,-1.61
2018-02-23T22:43:52.134Z,-1.54
2018-02-23T22:46:21.395Z,-1.39
2018-02-23T22:48:50.740Z,-1.55
2018-02-23T22:51:20.803Z,-1.40
2018-02-23T22:53:51.410Z,-1.45
2018-02-23T22:56:20.595Z,-1.52
2018-02-23T22:58:50.229Z,-1.51
2018-02-23T23:01:19.627Z,-1.24
2018-02-23T23:03:48.920Z,-1.51
2018-02-23T23:06:18.390Z,-1.48
2018-02-23T23:08:48.347Z,-1.52
2018-02-23T23:11:21.848Z,-1.57
2018-02-23T23:13:51.294Z,-1.41
2018-02-23T23:16:20.526Z,-1.50
2018-02-23T23:18:49.719Z,-1.53
2018-02-23T23:21:18.905Z,-1.57
2018-02-23T23:23:48.065Z,-1.52
2018-02-23T23:28:56.536Z,-1.44
2018-02-23T23:31:25.707Z,-1.45
2018-02-23T23:33:54.852Z,-1.44
2018-02-23T23:36:24.012Z,-1.35
2018-02-23T23:38:54.111Z,-1.17
2018-02-23T23:41:23.283Z,-1.31
2018-02-23T23:43:52.504Z,-1.46
2018-02-23T23:46:21.676Z,-1.53
2018-02-23T23:48:50.839Z,-1.60
2018-02-23T23:51:20.011Z,-1.51
2018-02-23T23:53:49.891Z,-1.53
2018-02-23T23:56:19.062Z,-1.42
2018-02-23T23:58:48.239Z,-1.55
